Time;durP1;ratioP1;P1;durP2;ratioP2;P2;SDS_P1;SDS_P2;PMS_P1;PMS_P2;Temp;Humidity;BMP_temperature;BMP_pressure;BME280_temperature;BME280_humidity;BME280_pressure;Samples;Min_cycle;Max_cycle;Signal;HPM_P1;HPM_P2
2023/06/01 00:00:33;;;;;;;10.68;5.10;;;;;;;;;;6265766;28;20021;-77
2023/06/01 00:03:33;;;;;;;11.05;4.53;;;;;;;;;;6268060;28;20052;-79
2023/06/01 00:06:34;;;;;;;10.93;5.33;;;;;;;;;;6251675;28;20013;-77
2023/06/01 00:09:34;;;;;;;7.80;4.53;;;;;;;;;;6269247;28;20028;-77
2023/06/01 00:12:34;;;;;;;9.05;4.65;;;;;;;;;;6262899;28;20025;-77
2023/06/01 00:15:35;;;;;;;10.45;4.90;;;;;;;;;;6269164;28;20108;-77
2023/06/01 00:18:35;;;;;;;14.15;5.93;;;;;;;;;;6268972;28;20013;-77
2023/06/01 00:21:36;;;;;;;13.17;6.23;;;;;;;;;;6251643;28;20028;-77
2023/06/01 00:24:36;;;;;;;14.80;5.47;;;;;;;;;;6251665;28;20266;-77
2023/06/01 00:27:36;;;;;;;11.70;4.97;;;;;;;;;;6268980;28;20024;-77
2023/06/01 00:30:38;;;;;;;10.20;5.13;;;;;;;;;;6269985;28;20259;-77
2023/06/01 00:33:38;;;;;;;11.85;5.90;;;;;;;;;;6272565;28;20108;-77
2023/06/01 00:36:39;;;;;;;11.30;6.32;;;;;;;;;;6267815;28;20021;-78
2023/06/01 00:39:39;;;;;;;9.00;5.93;;;;;;;;;;6249093;28;20017;-77
2023/06/01 00:42:39;;;;;;;13.05;6.50;;;;;;;;;;6268716;28;20267;-77
2023/06/01 00:45:39;;;;;;;13.18;6.07;;;;;;;;;;6268566;28;20078;-77
2023/06/01 00:48:39;;;;;;;11.52;5.15;;;;;;;;;;6268564;28;20020;-77
2023/06/01 00:51:40;;;;;;;14.18;6.57;;;;;;;;;;6268151;28;20021;-77
2023/06/01 00:54:40;;;;;;;8.98;5.53;;;;;;;;;;6263893;28;20428;-77
2023/06/01 00:57:42;;;;;;;10.80;6.13;;;;;;;;;;6267678;28;20502;-77
2023/06/01 01:00:42;;;;;;;10.60;4.45;;;;;;;;;;6264447;28;20047;-77
2023/06/01 01:03:46;;;;;;;10.20;5.13;;;;;;;;;;6264323;28;20009;-78
2023/06/01 01:06:56;;;;;;;10.45;4.47;;;;;;;;;;6265239;28;20075;-77
2023/06/01 01:09:58;;;;;;;10.50;5.65;;;;;;;;;;6249171;28;20017;-78
2023/06/01 01:13:06;;;;;;;9.50;5.15;;;;;;;;;;6266230;28;20048;-78
2023/06/01 01:16:12;;;;;;;8.85;4.10;;;;;;;;;;6263727;28;20028;-77
2023/06/01 01:19:16;;;;;;;9.32;4.53;;;;;;;;;;6248513;28;20128;-78
2023/06/01 01:22:20;;;;;;;9.98;4.85;;;;;;;;;;6268008;28;20035;-77
2023/06/01 01:25:39;;;;;;;9.80;5.35;;;;;;;;;;6267990;28;20032;-78
2023/06/01 01:28:46;;;;;;;9.95;4.43;;;;;;;;;;6268670;28;20444;-78
2023/06/01 01:31:49;;;;;;;7.10;4.00;;;;;;;;;;6249266;28;20032;-78
2023/06/01 01:34:49;;;;;;;13.13;4.82;;;;;;;;;;6266222;28;20017;-78
2023/06/01 01:37:51;;;;;;;10.25;5.13;;;;;;;;;;6267645;28;20044;-77
2023/06/01 01:40:52;;;;;;;12.35;5.25;;;;;;;;;;6267949;28;20060;-78
2023/06/01 01:43:53;;;;;;;10.50;5.05;;;;;;;;;;6266315;28;20025;-77
2023/06/01 01:46:58;;;;;;;14.80;6.47;;;;;;;;;;6265466;28;20036;-77
2023/06/01 01:50:03;;;;;;;10.10;5.45;;;;;;;;;;6260998;28;20490;-77
2023/06/01 01:53:05;;;;;;;14.68;6.53;;;;;;;;;;6249192;28;20024;-77
2023/06/01 01:56:05;;;;;;;;;;;;;;;;;;6266124;28;20041;-78
2023/06/01 01:59:05;;;;;;;12.02;5.35;;;;;;;;;;6248916;28;19915;-77
2023/06/01 02:02:06;;;;;;;11.25;5.72;;;;;;;;;;6260536;28;20029;-77
2023/06/01 02:05:06;;;;;;;14.73;7.20;;;;;;;;;;6268067;28;20025;-77
2023/06/01 02:08:06;;;;;;;12.68;6.88;;;;;;;;;;6266128;28;20452;-77
2023/06/01 02:11:06;;;;;;;9.00;6.30;;;;;;;;;;6269437;28;20104;-77
2023/06/01 02:14:07;;;;;;;10.27;5.57;;;;;;;;;;6271473;28;20037;-77
2023/06/01 02:17:07;;;;;;;12.40;5.80;;;;;;;;;;6272231;28;20263;-77
2023/06/01 02:20:08;;;;;;;13.25;6.65;;;;;;;;;;6271696;28;20335;-77
2023/06/01 02:23:08;;;;;;;15.05;5.15;;;;;;;;;;6263553;28;20025;-78
2023/06/01 02:26:09;;;;;;;12.50;5.70;;;;;;;;;;6271262;28;20020;-77
2023/06/01 02:29:09;;;;;;;10.95;5.13;;;;;;;;;;6268031;28;20757;-78
2023/06/01 02:32:09;;;;;;;12.43;7.60;;;;;;;;;;6271313;28;20032;-77
2023/06/01 02:35:11;;;;;;;13.10;6.82;;;;;;;;;;6268375;28;20314;-78
2023/06/01 02:38:11;;;;;;;11.43;6.13;;;;;;;;;;6249323;28;20467;-77
2023/06/01 02:41:11;;;;;;;18.07;7.80;;;;;;;;;;6270460;28;20032;-77
2023/06/01 02:44:12;;;;;;;12.82;7.55;;;;;;;;;;6264679;28;20397;-77
2023/06/01 02:47:12;;;;;;;11.15;5.32;;;;;;;;;;6270824;28;20032;-78
2023/06/01 02:50:13;;;;;;;10.93;5.72;;;;;;;;;;6253085;28;20056;-77
2023/06/01 02:53:14;;;;;;;11.18;5.18;;;;;;;;;;6266206;28;20402;-77
2023/06/01 02:56:15;;;;;;;10.40;5.28;;;;;;;;;;6267757;28;20013;-77
2023/06/01 02:59:15;;;;;;;11.38;6.03;;;;;;;;;;6270874;28;20474;-77
2023/06/01 03:02:15;;;;;;;14.98;7.28;;;;;;;;;;6270187;28;20036;-77
2023/06/01 03:05:16;;;;;;;12.93;6.03;;;;;;;;;;6264094;28;20027;-77
2023/06/01 03:08:17;;;;;;;15.98;6.35;;;;;;;;;;6271065;28;20355;-77
2023/06/01 03:11:17;;;;;;;9.63;5.10;;;;;;;;;;6269383;28;20028;-77
2023/06/01 03:14:18;;;;;;;9.18;4.63;;;;;;;;;;6267142;28;20041;-77
2023/06/01 03:17:18;;;;;;;9.82;4.57;;;;;;;;;;6268945;28;20101;-77
2023/06/01 03:20:19;;;;;;;10.63;5.27;;;;;;;;;;6269789;28;20120;-77
2023/06/01 03:23:19;;;;;;;11.15;6.35;;;;;;;;;;6268075;28;20259;-77
2023/06/01 03:26:21;;;;;;;12.20;7.33;;;;;;;;;;6269846;28;20029;-77
2023/06/01 03:29:21;;;;;;;18.05;7.40;;;;;;;;;;6270458;28;20264;-77
2023/06/01 03:32:21;;;;;;;13.13;6.70;;;;;;;;;;6274827;28;20009;-77
2023/06/01 03:35:21;;;;;;;16.67;6.60;;;;;;;;;;6258503;28;20021;-77
2023/06/01 03:38:22;;;;;;;12.40;6.23;;;;;;;;;;6272793;28;20283;-77
2023/06/01 03:41:23;;;;;;;16.50;6.90;;;;;;;;;;6252459;28;20269;-77
2023/06/01 03:44:23;;;;;;;15.87;6.23;;;;;;;;;;6269006;28;20028;-77
2023/06/01 03:47:23;;;;;;;18.33;7.30;;;;;;;;;;6251620;28;20108;-77
2023/06/01 03:50:23;;;;;;;12.67;7.13;;;;;;;;;;6251425;28;20264;-77
2023/06/01 03:53:25;;;;;;;17.83;7.97;;;;;;;;;;6263460;28;20279;-77
2023/06/01 03:56:25;;;;;;;19.20;9.70;;;;;;;;;;6268526;28;20014;-77
2023/06/01 03:59:26;;;;;;;19.10;8.20;;;;;;;;;;6269640;28;20024;-76
2023/06/01 04:02:26;;;;;;;16.05;7.40;;;;;;;;;;6269482;28;20257;-77
2023/06/01 04:05:27;;;;;;;16.23;7.55;;;;;;;;;;6268783;28;20020;-77
2023/06/01 04:08:29;;;;;;;26.35;10.25;;;;;;;;;;6268321;28;20571;-77
2023/06/01 04:11:29;;;;;;;;;;;;;;;;;;6251083;28;20013;-77
2023/06/01 04:14:29;;;;;;;23.45;8.23;;;;;;;;;;6248853;28;20011;-77
2023/06/01 04:17:29;;;;;;;18.88;8.13;;;;;;;;;;6268670;28;20020;-77
2023/06/01 04:20:31;;;;;;;20.20;7.88;;;;;;;;;;6268914;28;20016;-77
2023/06/01 04:23:31;;;;;;;20.90;9.45;;;;;;;;;;6265324;28;20430;-78
2023/06/01 04:26:32;;;;;;;23.07;8.57;;;;;;;;;;6269199;28;20048;-78
2023/06/01 04:29:33;;;;;;;25.10;11.93;;;;;;;;;;6268267;28;20048;-80
2023/06/01 04:32:35;;;;;;;21.95;8.55;;;;;;;;;;6265987;28;20035;-79
2023/06/01 04:35:36;;;;;;;;;;;;;;;;;;6252000;28;20603;-79
2023/06/01 04:38:40;;;;;;;17.38;8.93;;;;;;;;;;6268585;28;20015;-80
2023/06/01 04:41:40;;;;;;;19.92;9.68;;;;;;;;;;6262419;28;20016;-80
2023/06/01 04:44:41;;;;;;;22.40;9.57;;;;;;;;;;6235370;28;20017;-80
2023/06/01 04:47:44;;;;;;;18.50;8.93;;;;;;;;;;6268557;28;20306;-80
2023/06/01 04:50:44;;;;;;;17.70;10.25;;;;;;;;;;6268721;28;20032;-77
2023/06/01 04:53:49;;;;;;;23.23;10.07;;;;;;;;;;6262444;28;20021;-80
2023/06/01 04:56:51;;;;;;;18.85;8.50;;;;;;;;;;6265044;28;20297;-80
2023/06/01 04:59:51;;;;;;;19.88;9.35;;;;;;;;;;6229304;28;20017;-80
2023/06/01 05:02:51;;;;;;;23.07;10.60;;;;;;;;;;6261992;28;20039;-77
2023/06/01 05:05:51;;;;;;;25.27;9.87;;;;;;;;;;6264799;28;20016;-79
2023/06/01 05:08:52;;;;;;;22.33;9.47;;;;;;;;;;6267110;28;20391;-80
2023/06/01 05:11:52;;;;;;;18.48;9.93;;;;;;;;;;6267314;28;20732;-78
2023/06/01 05:14:52;;;;;;;18.00;10.30;;;;;;;;;;6267364;28;20139;-78
2023/06/01 05:17:53;;;;;;;21.23;10.30;;;;;;;;;;6240852;28;20033;-78
2023/06/01 05:20:53;;;;;;;21.73;10.83;;;;;;;;;;6232900;28;20025;-78
2023/06/01 05:23:53;;;;;;;24.10;10.10;;;;;;;;;;6255513;28;20062;-78
2023/06/01 05:26:53;;;;;;;22.03;10.13;;;;;;;;;;6260793;28;20027;-78
2023/06/01 05:29:54;;;;;;;21.23;11.87;;;;;;;;;;6248576;28;20031;-78
2023/06/01 05:32:55;;;;;;;19.45;10.52;;;;;;;;;;6266567;28;20017;-78
2023/06/01 05:35:57;;;;;;;20.53;9.97;;;;;;;;;;6264106;28;20025;-78
2023/06/01 05:38:57;;;;;;;17.48;9.43;;;;;;;;;;6266972;28;20071;-79
2023/06/01 05:41:57;;;;;;;17.73;9.77;;;;;;;;;;6266505;28;20029;-80
2023/06/01 05:44:57;;;;;;;17.20;9.90;;;;;;;;;;6248929;28;20120;-79
2023/06/01 05:47:58;;;;;;;20.33;10.27;;;;;;;;;;6267190;28;20486;-79
2023/06/01 05:50:58;;;;;;;21.83;9.10;;;;;;;;;;6247523;28;20510;-80
2023/06/01 05:53:58;;;;;;;15.03;8.93;;;;;;;;;;6265307;28;20025;-79
2023/06/01 05:56:59;;;;;;;15.03;9.63;;;;;;;;;;6264232;28;20259;-79
2023/06/01 05:59:59;;;;;;;17.63;9.50;;;;;;;;;;6263338;28;20414;-79
2023/06/01 06:02:59;;;;;;;20.50;9.30;;;;;;;;;;6264178;28;20060;-79
2023/06/01 06:06:01;;;;;;;15.67;8.73;;;;;;;;;;6269920;28;20414;-79
2023/06/01 06:09:02;;;;;;;19.50;9.55;;;;;;;;;;6249324;28;20547;-79
2023/06/01 06:12:02;;;;;;;16.27;8.77;;;;;;;;;;6241804;28;20029;-79
2023/06/01 06:15:04;;;;;;;;;;;;;;;;;;6242462;28;20562;-79
2023/06/01 06:18:04;;;;;;;16.05;8.52;;;;;;;;;;6268663;28;19912;-80
2023/06/01 06:21:04;;;;;;;;;;;;;;;;;;6250706;28;20066;-80
2023/06/01 06:24:06;;;;;;;18.20;8.93;;;;;;;;;;6257171;28;19909;-83
2023/06/01 06:27:06;;;;;;;17.45;7.68;;;;;;;;;;6255238;28;20021;-79
2023/06/01 06:30:07;;;;;;;15.73;7.38;;;;;;;;;;6247395;28;20013;-79
2023/06/01 06:33:07;;;;;;;15.45;7.47;;;;;;;;;;6267050;28;20033;-79
2023/06/01 06:36:07;;;;;;;14.60;7.73;;;;;;;;;;6249136;28;20506;-79
2023/06/01 06:39:08;;;;;;;13.68;7.40;;;;;;;;;;6249374;28;20115;-79
2023/06/01 06:42:08;;;;;;;13.73;7.37;;;;;;;;;;6244863;28;20032;-80
2023/06/01 06:45:09;;;;;;;15.07;7.17;;;;;;;;;;6271526;28;20029;-79
2023/06/01 06:48:11;;;;;;;11.15;5.53;;;;;;;;;;6249032;28;20132;-79
2023/06/01 06:51:11;;;;;;;16.27;7.30;;;;;;;;;;6265838;28;20118;-80
2023/06/01 06:54:12;;;;;;;15.43;6.30;;;;;;;;;;6266590;28;20429;-79
2023/06/01 06:57:13;;;;;;;11.98;6.90;;;;;;;;;;6228215;28;20272;-79
2023/06/01 07:00:14;;;;;;;16.50;7.38;;;;;;;;;;6267341;28;20071;-80
2023/06/01 07:03:14;;;;;;;12.80;6.50;;;;;;;;;;6250940;28;20030;-85
2023/06/01 07:06:14;;;;;;;14.20;6.17;;;;;;;;;;6272539;28;20059;-85
2023/06/01 07:09:14;;;;;;;16.13;6.40;;;;;;;;;;6269483;28;20029;-85
2023/06/01 07:12:15;;;;;;;19.48;7.45;;;;;;;;;;6272069;28;20295;-85
2023/06/01 07:15:16;;;;;;;18.52;7.07;;;;;;;;;;6269742;28;20065;-85
2023/06/01 07:18:16;;;;;;;21.63;8.38;;;;;;;;;;6252161;28;20047;-86
2023/06/01 07:21:18;;;;;;;23.03;8.40;;;;;;;;;;6251114;28;20025;-85
2023/06/01 07:24:21;;;;;;;19.48;6.88;;;;;;;;;;6253931;28;20287;-85
2023/06/01 07:27:21;;;;;;;18.33;6.10;;;;;;;;;;6268346;28;20096;-86
2023/06/01 07:30:21;;;;;;;16.30;6.67;;;;;;;;;;6271187;28;20112;-86
2023/06/01 07:33:22;;;;;;;14.55;5.80;;;;;;;;;;6266602;28;20029;-85
2023/06/01 07:36:26;;;;;;;12.85;5.20;;;;;;;;;;6273057;28;20052;-87
2023/06/01 07:39:26;;;;;;;17.35;7.30;;;;;;;;;;6273906;28;20384;-85
2023/06/01 07:42:26;;;;;;;14.70;6.27;;;;;;;;;;6268574;28;20013;-85
2023/06/01 07:45:27;;;;;;;14.57;5.97;;;;;;;;;;6272046;28;20021;-86
2023/06/01 07:48:27;;;;;;;10.70;5.33;;;;;;;;;;6273710;28;20029;-86
2023/06/01 07:51:28;;;;;;;16.67;5.63;;;;;;;;;;6278741;28;20033;-85
2023/06/01 07:54:28;;;;;;;14.10;4.57;;;;;;;;;;6275863;28;20033;-85
2023/06/01 07:57:29;;;;;;;7.67;4.27;;;;;;;;;;6259007;28;20033;-85
2023/06/01 08:00:29;;;;;;;13.70;4.63;;;;;;;;;;6276307;28;20024;-86
2023/06/01 08:03:29;;;;;;;12.23;4.87;;;;;;;;;;6249611;28;20117;-86
2023/06/01 08:06:35;;;;;;;11.17;3.53;;;;;;;;;;6272438;28;20569;-86
2023/06/01 08:09:37;;;;;;;13.20;4.05;;;;;;;;;;6254450;28;20067;-85
2023/06/01 08:12:37;;;;;;;6.43;2.72;;;;;;;;;;6267181;28;20025;-79
2023/06/01 08:15:37;;;;;;;6.43;3.10;;;;;;;;;;6249667;28;20029;-80
2023/06/01 08:18:37;;;;;;;6.80;3.10;;;;;;;;;;6250458;28;20025;-80
2023/06/01 08:21:41;;;;;;;9.33;2.97;;;;;;;;;;6250720;28;20111;-80
2023/06/01 08:24:41;;;;;;;8.25;3.40;;;;;;;;;;6268368;28;20032;-80
2023/06/01 08:27:42;;;;;;;8.30;3.83;;;;;;;;;;6269497;28;20533;-80
2023/06/01 08:30:42;;;;;;;10.35;3.90;;;;;;;;;;6245099;28;20021;-81
2023/06/01 08:33:42;;;;;;;11.80;3.63;;;;;;;;;;6268064;28;20021;-81
2023/06/01 08:36:42;;;;;;;11.70;4.43;;;;;;;;;;6252740;28;20019;-81
2023/06/01 08:39:42;;;;;;;10.23;3.70;;;;;;;;;;6266791;28;20124;-81
2023/06/01 08:43:02;;;;;;;7.57;3.20;;;;;;;;;;6267534;28;20051;-81
2023/06/01 08:46:02;;;;;;;8.25;3.75;;;;;;;;;;6264156;28;20021;-81
2023/06/01 08:49:05;;;;;;;7.15;3.03;;;;;;;;;;6268801;28;20123;-81
2023/06/01 08:52:12;;;;;;;9.85;3.10;;;;;;;;;;6261584;28;20029;-81
2023/06/01 08:55:13;;;;;;;9.45;2.88;;;;;;;;;;6266251;28;20391;-81
2023/06/01 08:58:14;;;;;;;5.28;2.85;;;;;;;;;;6269323;28;20059;-81
2023/06/01 09:01:23;;;;;;;10.23;3.35;;;;;;;;;;6267844;28;20467;-81
2023/06/01 09:04:25;;;;;;;10.53;3.67;;;;;;;;;;6268296;28;20029;-82
2023/06/01 09:07:26;;;;;;;9.43;3.30;;;;;;;;;;6250584;28;20091;-81
2023/06/01 09:10:26;;;;;;;6.63;3.50;;;;;;;;;;6249642;28;20544;-81
2023/06/01 09:13:39;;;;;;;11.97;4.07;;;;;;;;;;6266512;28;20565;-81
2023/06/01 09:16:39;;;;;;;9.80;3.85;;;;;;;;;;6267296;28;20031;-81
2023/06/01 09:19:44;;;;;;;6.30;3.03;;;;;;;;;;6249660;28;20021;-80
2023/06/01 09:22:46;;;;;;;13.45;3.45;;;;;;;;;;6262306;28;20025;-81
2023/06/01 09:25:47;;;;;;;6.70;3.10;;;;;;;;;;6267583;28;20058;-81
2023/06/01 09:28:55;;;;;;;8.63;2.90;;;;;;;;;;6249163;28;20044;-80
2023/06/01 09:31:55;;;;;;;8.15;3.10;;;;;;;;;;6246539;28;20021;-81
2023/06/01 09:34:55;;;;;;;7.35;3.38;;;;;;;;;;6248882;28;20486;-81
2023/06/01 09:37:56;;;;;;;6.73;3.17;;;;;;;;;;6265509;28;20449;-80
2023/06/01 09:41:00;;;;;;;8.82;3.30;;;;;;;;;;6269585;28;20044;-81
2023/06/01 09:44:01;;;;;;;10.00;2.92;;;;;;;;;;6245957;28;20874;-81
2023/06/01 09:47:02;;;;;;;5.37;3.03;;;;;;;;;;6267034;28;20046;-81
2023/06/01 09:50:03;;;;;;;10.40;3.78;;;;;;;;;;6264474;28;20460;-81
2023/06/01 09:53:06;;;;;;;6.10;2.78;;;;;;;;;;6242459;28;20028;-81
2023/06/01 09:56:06;;;;;;;6.53;3.38;;;;;;;;;;6243164;28;20076;-81
2023/06/01 09:59:07;;;;;;;9.73;3.67;;;;;;;;;;6249121;28;20115;-81
2023/06/01 10:02:08;;;;;;;9.87;3.13;;;;;;;;;;6264472;28;20464;-81
2023/06/01 10:05:08;;;;;;;;;;;;;;;;;;6267024;28;20021;-81
2023/06/01 10:08:10;;;;;;;8.80;3.20;;;;;;;;;;6264952;28;20345;-81
2023/06/01 10:11:10;;;;;;;9.68;3.17;;;;;;;;;;6267024;28;20067;-81
2023/06/01 10:14:10;;;;;;;8.70;3.53;;;;;;;;;;6263386;28;20092;-82
2023/06/01 10:17:11;;;;;;;6.85;2.63;;;;;;;;;;6266990;28;20033;-82
2023/06/01 10:20:13;;;;;;;7.32;3.13;;;;;;;;;;6267460;28;20028;-82
2023/06/01 10:23:16;;;;;;;7.43;3.33;;;;;;;;;;6266854;28;20025;-82
2023/06/01 10:26:17;;;;;;;13.02;3.80;;;;;;;;;;6266447;28;20029;-82
2023/06/01 10:29:19;;;;;;;9.13;3.97;;;;;;;;;;6265924;28;20024;-82
2023/06/01 10:32:38;;;;;;;9.18;3.60;;;;;;;;;;6260161;28;20032;-82
2023/06/01 10:35:41;;;;;;;10.70;3.95;;;;;;;;;;6251225;28;20080;-81
2023/06/01 10:38:41;;;;;;;7.05;3.33;;;;;;;;;;6271414;28;20020;-81
2023/06/01 10:41:42;;;;;;;9.60;3.60;;;;;;;;;;6270529;28;20030;-81
2023/06/01 10:44:42;;;;;;;;;;;;;;;;;;6253838;28;20063;-81
2023/06/01 10:47:43;;;;;;;9.57;4.17;;;;;;;;;;6268090;28;19920;-82
2023/06/01 10:51:03;;;;;;;6.90;3.25;;;;;;;;;;6267468;28;20033;-82
2023/06/01 10:54:30;;;;;;;7.97;3.05;;;;;;;;;;6265868;28;20467;-82
2023/06/01 10:57:32;;;;;;;12.57;3.65;;;;;;;;;;6262789;28;20120;-82
2023/06/01 11:00:37;;;;;;;9.05;3.03;;;;;;;;;;6266594;28;20025;-82
2023/06/01 11:03:45;;;;;;;10.05;3.92;;;;;;;;;;6258565;28;20079;-82
2023/06/01 11:06:46;;;;;;;8.73;3.38;;;;;;;;;;6265849;28;20009;-82
2023/06/01 11:09:46;;;;;;;;;;;;;;;;;;6271339;28;20072;-81
2023/06/01 11:13:05;;;;;;;5.00;2.70;;;;;;;;;;6270535;28;19916;-81
2023/06/01 11:16:21;;;;;;;7.20;3.08;;;;;;;;;;6269771;28;20109;-81
2023/06/01 11:19:24;;;;;;;7.68;3.15;;;;;;;;;;6267315;28;20495;-82
2023/06/01 11:22:27;;;;;;;6.40;2.75;;;;;;;;;;6268046;28;20112;-81
2023/06/01 11:25:28;;;;;;;8.13;2.80;;;;;;;;;;6250161;28;20024;-81
2023/06/01 11:28:28;;;;;;;;;;;;;;;;;;6270996;28;20025;-81
2023/06/01 11:31:33;;;;;;;8.13;2.58;;;;;;;;;;6270503;28;20005;-81
2023/06/01 11:34:37;;;;;;;9.20;3.50;;;;;;;;;;6270152;28;20486;-82
2023/06/01 11:37:40;;;;;;;8.05;4.40;;;;;;;;;;6269020;28;20484;-82
2023/06/01 11:40:57;;;;;;;6.20;2.67;;;;;;;;;;6273006;28;20021;-82
2023/06/01 11:44:04;;;;;;;6.55;2.55;;;;;;;;;;6266504;28;20051;-83
2023/06/01 11:47:05;;;;;;;6.28;3.58;;;;;;;;;;6269751;28;20028;-82
2023/06/01 11:50:06;;;;;;;7.88;3.05;;;;;;;;;;6273074;28;20024;-82
2023/06/01 11:53:06;;;;;;;5.88;2.58;;;;;;;;;;6269044;28;20033;-81
2023/06/01 11:56:07;;;;;;;4.93;3.22;;;;;;;;;;6269223;28;20408;-82
2023/06/01 11:59:09;;;;;;;8.60;2.70;;;;;;;;;;6269571;28;20368;-82
2023/06/01 12:02:26;;;;;;;4.53;2.45;;;;;;;;;;6264542;28;20392;-81
2023/06/01 12:05:37;;;;;;;6.60;2.33;;;;;;;;;;6251282;28;20067;-81
2023/06/01 12:08:37;;;;;;;8.52;3.38;;;;;;;;;;6247855;28;20108;-82
2023/06/01 12:11:37;;;;;;;7.30;2.40;;;;;;;;;;6250367;28;20390;-82
2023/06/01 12:14:38;;;;;;;6.30;2.70;;;;;;;;;;6268168;28;20561;-82
2023/06/01 12:17:45;;;;;;;8.52;2.20;;;;;;;;;;6267714;28;20033;-81
2023/06/01 12:20:46;;;;;;;10.02;2.70;;;;;;;;;;6266347;28;20023;-81
2023/06/01 12:23:51;;;;;;;6.00;2.28;;;;;;;;;;6262935;28;20021;-82
2023/06/01 12:26:51;;;;;;;5.82;2.30;;;;;;;;;;6268784;28;20052;-82
2023/06/01 12:29:53;;;;;;;8.77;2.87;;;;;;;;;;6268800;28;20028;-82
2023/06/01 12:32:53;;;;;;;3.72;2.13;;;;;;;;;;6247666;28;20029;-80
2023/06/01 12:35:54;;;;;;;7.28;2.75;;;;;;;;;;6250341;28;20024;-82
2023/06/01 12:38:54;;;;;;;8.87;3.20;;;;;;;;;;6268999;28;20032;-80
2023/06/01 12:41:54;;;;;;;6.65;3.13;;;;;;;;;;6267681;28;20471;-80
2023/06/01 12:44:55;;;;;;;7.97;2.83;;;;;;;;;;6267702;28;20420;-80
2023/06/01 12:47:55;;;;;;;5.40;2.30;;;;;;;;;;6268198;28;20021;-80
2023/06/01 12:50:55;;;;;;;6.47;2.83;;;;;;;;;;6250448;28;20013;-80
2023/06/01 12:53:55;;;;;;;3.80;2.40;;;;;;;;;;6249967;28;20017;-80
2023/06/01 12:56:56;;;;;;;5.77;2.17;;;;;;;;;;6249981;28;20019;-80
2023/06/01 12:59:57;;;;;;;8.00;2.50;;;;;;;;;;6264706;28;20838;-80
2023/06/01 13:02:57;;;;;;;7.23;2.70;;;;;;;;;;6250833;28;20112;-81
2023/06/01 13:05:57;;;;;;;4.68;2.55;;;;;;;;;;6250099;28;20445;-81
2023/06/01 13:08:57;;;;;;;5.40;2.73;;;;;;;;;;6263853;28;20056;-81
2023/06/01 13:11:58;;;;;;;4.90;2.47;;;;;;;;;;6263699;28;20052;-81
2023/06/01 13:14:58;;;;;;;6.10;2.37;;;;;;;;;;6265146;28;20049;-81
2023/06/01 13:17:58;;;;;;;6.17;2.90;;;;;;;;;;6269634;28;20682;-81
2023/06/01 13:20:58;;;;;;;5.60;2.50;;;;;;;;;;6253466;28;20395;-81
2023/06/01 13:24:01;;;;;;;6.78;2.45;;;;;;;;;;6269953;28;20031;-81
2023/06/01 13:27:04;;;;;;;5.80;2.42;;;;;;;;;;6271494;28;20028;-80
2023/06/01 13:30:05;;;;;;;6.22;2.20;;;;;;;;;;6268800;28;20487;-80
2023/06/01 13:33:06;;;;;;;6.97;2.60;;;;;;;;;;6264857;28;20078;-81
2023/06/01 13:36:07;;;;;;;7.00;3.00;;;;;;;;;;6263305;28;20029;-80
2023/06/01 13:39:07;;;;;;;8.65;3.75;;;;;;;;;;6269025;28;20367;-81
2023/06/01 13:42:07;;;;;;;9.43;3.93;;;;;;;;;;6265979;28;20025;-80
2023/06/01 13:45:08;;;;;;;6.95;2.28;;;;;;;;;;6263429;28;20033;-81
2023/06/01 13:48:09;;;;;;;8.65;3.22;;;;;;;;;;6263207;28;20031;-81
2023/06/01 13:51:09;;;;;;;5.95;2.33;;;;;;;;;;6246303;28;21703;-81
2023/06/01 13:54:12;;;;;;;8.13;2.60;;;;;;;;;;6262331;28;20040;-81
2023/06/01 13:57:14;;;;;;;10.88;5.65;;;;;;;;;;6254365;28;20025;-81
2023/06/01 14:00:14;;;;;;;12.00;3.42;;;;;;;;;;6264259;28;20021;-81
2023/06/01 14:03:15;;;;;;;5.95;3.70;;;;;;;;;;6248346;28;20490;-81
2023/06/01 14:06:16;;;;;;;9.88;2.60;;;;;;;;;;6261744;28;20052;-81
2023/06/01 14:09:16;;;;;;;6.93;3.70;;;;;;;;;;6252013;28;20059;-82
2023/06/01 14:12:17;;;;;;;9.65;3.50;;;;;;;;;;6251790;28;20395;-81
2023/06/01 14:15:17;;;;;;;7.80;4.57;;;;;;;;;;6264941;28;20049;-81
2023/06/01 14:18:17;;;;;;;12.52;4.85;;;;;;;;;;6265630;28;20051;-81
2023/06/01 14:21:19;;;;;;;8.87;3.17;;;;;;;;;;6264708;28;20031;-81
2023/06/01 14:24:20;;;;;;;7.55;2.40;;;;;;;;;;6266753;28;20630;-81
2023/06/01 14:27:20;;;;;;;17.85;4.57;;;;;;;;;;6264622;28;20017;-81
2023/06/01 14:30:20;;;;;;;10.53;2.90;;;;;;;;;;6252452;28;20036;-80
2023/06/01 14:33:21;;;;;;;3.90;2.30;;;;;;;;;;6249917;28;20537;-80
2023/06/01 14:36:24;;;;;;;6.32;2.05;;;;;;;;;;6252155;28;20294;-80
2023/06/01 14:39:25;;;;;;;5.90;2.22;;;;;;;;;;6266569;28;20022;-80
2023/06/01 14:42:25;;;;;;;5.45;2.10;;;;;;;;;;6271110;28;20075;-81
2023/06/01 14:45:26;;;;;;;4.00;2.00;;;;;;;;;;6238701;28;20108;-82
2023/06/01 14:48:26;;;;;;;4.93;2.80;;;;;;;;;;6270427;28;20500;-81
2023/06/01 14:51:27;;;;;;;7.20;2.27;;;;;;;;;;6271804;28;20016;-81
2023/06/01 14:54:28;;;;;;;6.50;1.98;;;;;;;;;;6270377;28;20040;-80
2023/06/01 14:57:28;;;;;;;5.25;2.45;;;;;;;;;;6257291;28;20072;-81
2023/06/01 15:00:28;;;;;;;9.23;2.70;;;;;;;;;;6253158;28;20056;-81
2023/06/01 15:03:28;;;;;;;9.00;3.08;;;;;;;;;;6248133;28;20117;-81
2023/06/01 15:06:29;;;;;;;6.10;2.93;;;;;;;;;;6261504;28;20559;-81
2023/06/01 15:09:29;;;;;;;6.43;2.70;;;;;;;;;;6266185;28;20059;-81
2023/06/01 15:12:29;;;;;;;7.63;2.70;;;;;;;;;;6272370;28;20024;-81
2023/06/01 15:15:29;;;;;;;4.70;2.40;;;;;;;;;;6269800;28;20041;-81
2023/06/01 15:18:29;;;;;;;3.17;2.00;;;;;;;;;;6274907;28;20115;-81
2023/06/01 15:21:31;;;;;;;6.83;2.47;;;;;;;;;;6270125;28;20036;-80
2023/06/01 15:24:31;;;;;;;8.85;2.10;;;;;;;;;;6266149;28;20037;-80
2023/06/01 15:27:31;;;;;;;5.37;2.40;;;;;;;;;;6267955;28;20071;-81
2023/06/01 15:30:32;;;;;;;7.10;2.00;;;;;;;;;;6268899;28;20321;-80
2023/06/01 15:33:33;;;;;;;4.72;1.85;;;;;;;;;;6249233;28;20075;-80
2023/06/01 15:36:34;;;;;;;8.40;4.55;;;;;;;;;;6267889;28;20021;-81
2023/06/01 15:39:35;;;;;;;7.60;2.72;;;;;;;;;;6246869;28;20032;-80
2023/06/01 15:42:35;;;;;;;7.55;2.33;;;;;;;;;;6266726;28;20471;-81
2023/06/01 15:45:36;;;;;;;5.50;2.50;;;;;;;;;;6268570;28;20458;-81
2023/06/01 15:48:39;;;;;;;11.47;2.70;;;;;;;;;;6270397;28;20032;-81
2023/06/01 15:51:39;;;;;;;3.83;2.10;;;;;;;;;;6265657;28;20103;-80
2023/06/01 15:54:39;;;;;;;;;;;;;;;;;;6266535;28;20033;-81
2023/06/01 15:57:39;;;;;;;4.20;1.88;;;;;;;;;;6263340;28;19925;-80
2023/06/01 16:00:40;;;;;;;;;;;;;;;;;;6268143;28;20079;-81
2023/06/01 16:03:41;;;;;;;4.68;2.30;;;;;;;;;;6265735;28;20003;-80
2023/06/01 16:06:42;;;;;;;5.65;2.88;;;;;;;;;;6258830;28;20102;-80
2023/06/01 16:09:42;;;;;;;;;;;;;;;;;;6266264;28;20364;-80
2023/06/01 16:12:43;;;;;;;6.07;2.57;;;;;;;;;;6255551;28;19908;-81
2023/06/01 16:15:43;;;;;;;;;;;;;;;;;;6268038;28;20041;-81
2023/06/01 16:18:43;;;;;;;9.63;4.30;;;;;;;;;;6265017;28;19967;-80
2023/06/01 16:21:44;;;;;;;4.80;2.77;;;;;;;;;;6247699;28;20029;-81
2023/06/01 16:24:44;;;;;;;6.82;3.30;;;;;;;;;;6268991;28;20021;-81
2023/06/01 16:27:44;;;;;;;7.03;2.57;;;;;;;;;;6266687;28;20029;-81
2023/06/01 16:30:44;;;;;;;3.10;2.17;;;;;;;;;;6266577;28;20017;-81
2023/06/01 16:33:45;;;;;;;6.47;2.20;;;;;;;;;;6267792;28;20021;-81
2023/06/01 16:36:45;;;;;;;2.83;2.10;;;;;;;;;;6266123;28;20855;-81
2023/06/01 16:39:45;;;;;;;6.30;2.85;;;;;;;;;;6253748;28;20063;-81
2023/06/01 16:42:45;;;;;;;7.67;2.57;;;;;;;;;;6243123;28;20388;-81
2023/06/01 16:45:45;;;;;;;6.30;2.30;;;;;;;;;;6260445;28;20108;-81
2023/06/01 16:48:47;;;;;;;5.50;2.90;;;;;;;;;;6268157;28;20025;-81
2023/06/01 16:51:53;;;;;;;6.28;2.90;;;;;;;;;;6327643;27;1298445;-82
2023/06/01 16:54:54;;;;;;;5.33;3.00;;;;;;;;;;6363562;28;20030;-81
2023/06/01 16:57:54;;;;;;;4.57;2.33;;;;;;;;;;6363900;27;20019;-81
2023/06/01 17:00:55;;;;;;;7.65;3.35;;;;;;;;;;6364033;27;20043;-81
2023/06/01 17:03:55;;;;;;;4.93;2.60;;;;;;;;;;6356960;28;20561;-81
2023/06/01 17:06:55;;;;;;;3.77;2.57;;;;;;;;;;6359971;28;20094;-81
2023/06/01 17:09:55;;;;;;;4.50;2.40;;;;;;;;;;6362599;28;20020;-80
2023/06/01 17:12:56;;;;;;;5.23;2.80;;;;;;;;;;6360698;28;20023;-81
2023/06/01 17:15:56;;;;;;;7.60;2.03;;;;;;;;;;6357330;28;20022;-81
2023/06/01 17:18:56;;;;;;;13.47;2.63;;;;;;;;;;6361334;28;20020;-81
2023/06/01 17:21:56;;;;;;;5.35;2.53;;;;;;;;;;6364935;28;20568;-81
2023/06/01 17:24:56;;;;;;;10.60;2.43;;;;;;;;;;6358007;28;20011;-80
2023/06/01 17:27:57;;;;;;;6.40;2.50;;;;;;;;;;6358015;27;20534;-80
2023/06/01 17:30:57;;;;;;;6.30;2.72;;;;;;;;;;6360643;27;20446;-81
2023/06/01 17:33:58;;;;;;;7.63;2.50;;;;;;;;;;6359925;28;20477;-81
2023/06/01 17:36:58;;;;;;;4.37;2.47;;;;;;;;;;6360595;28;20046;-80
2023/06/01 17:39:58;;;;;;;3.93;2.03;;;;;;;;;;6357688;28;20412;-80
2023/06/01 17:42:58;;;;;;;5.30;2.60;;;;;;;;;;6357919;28;20075;-80
2023/06/01 17:45:58;;;;;;;6.17;2.47;;;;;;;;;;6362826;27;20045;-80
2023/06/01 17:48:59;;;;;;;11.70;3.30;;;;;;;;;;6357658;28;20098;-80
2023/06/01 17:51:59;;;;;;;8.13;3.63;;;;;;;;;;6356236;28;20572;-80
2023/06/01 17:54:59;;;;;;;8.60;2.97;;;;;;;;;;6358982;28;20015;-79
2023/06/01 17:58:00;;;;;;;9.00;3.87;;;;;;;;;;6354781;28;20377;-80
2023/06/01 18:01:01;;;;;;;5.37;2.97;;;;;;;;;;6358096;27;20038;-80
2023/06/01 18:04:02;;;;;;;7.93;3.33;;;;;;;;;;6339889;28;20474;-80